Time;durP1;ratioP1;P1;durP2;ratioP2;P2;SDS_P1;SDS_P2;PMS_P1;PMS_P2;Temp;Humidity;BMP_temperature;BMP_pressure;BME280_temperature;BME280_humidity;BME280_pressure;Samples;Min_cycle;Max_cycle;Signal;HPM_P1;HPM_P2
2022/06/04 00:01:50;;;;;;;3.85;3.22;;;;;;;21.88;100.00;100448.81;5092844;28;20198;-79
2022/06/04 00:04:17;;;;;;;8.00;3.53;;;;;;;22.14;100.00;100486.03;5093417;28;20202;-81
2022/06/04 00:06:49;;;;;;;7.25;3.70;;;;;;;21.96;100.00;100460.94;5077094;28;20195;-81
2022/06/04 00:09:16;;;;;;;4.00;3.60;;;;;;;21.95;100.00;100458.34;5053523;28;20307;-82
2022/06/04 00:17:14;;;;;;;6.82;3.70;;;;;;;21.99;100.00;100438.88;5080614;28;20233;-81
2022/06/04 00:19:41;;;;;;;10.85;4.40;;;;;;;22.13;100.00;100469.31;5082302;28;20190;-79
2022/06/04 00:22:09;;;;;;;4.93;3.65;;;;;;;22.09;100.00;100467.63;5082764;28;20198;-81
2022/06/04 00:24:37;;;;;;;4.88;3.70;;;;;;;22.16;100.00;100505.31;5088910;28;20206;-80
2022/06/04 00:27:04;;;;;;;4.82;3.70;;;;;;;21.88;100.00;100465.50;5089304;28;20194;-81
2022/06/04 00:29:32;;;;;;;5.38;3.80;;;;;;;21.93;100.00;100482.16;5084632;28;20285;-80
2022/06/04 00:31:59;;;;;;;3.83;3.53;;;;;;;22.23;100.00;100544.75;5091867;28;20226;-80
2022/06/04 00:34:26;;;;;;;5.50;4.82;;;;;;;21.56;100.00;100450.47;5084039;28;20210;-81
2022/06/04 00:36:53;;;;;;;8.70;4.47;;;;;;;21.57;100.00;100457.50;5086378;28;20222;-81
2022/06/04 00:39:22;;;;;;;6.50;4.40;;;;;;;21.71;100.00;100475.63;5089204;28;20557;-81
2022/06/04 00:42:00;;;;;;;8.93;3.75;;;;;;;21.79;100.00;100475.44;5092771;28;20198;-80
2022/06/04 00:45:15;;;;;;;4.13;3.63;;;;;;;21.91;100.00;100469.88;5083060;28;20191;-81
2022/06/04 00:47:42;;;;;;;7.28;4.65;;;;;;;21.72;100.00;100461.53;5057586;28;20199;-82
2022/06/04 00:50:09;;;;;;;12.02;4.63;;;;;;;21.71;100.00;100471.22;5088717;28;20233;-80
2022/06/04 00:52:37;;;;;;;6.95;4.13;;;;;;;21.90;100.00;100466.41;5073776;28;20199;-81
2022/06/04 00:55:07;;;;;;;7.30;4.65;;;;;;;21.60;100.00;100441.56;5072847;28;20205;-81
2022/06/04 00:57:54;;;;;;;4.43;3.60;;;;;;;22.05;100.00;100513.53;5083894;28;20218;-81
2022/06/04 01:00:25;;;;;;;6.05;4.20;;;;;;;22.44;100.00;100558.34;5064700;28;20194;-82
2022/06/04 01:03:11;;;;;;;3.80;3.53;;;;;;;22.07;100.00;100495.88;5080019;28;20584;-82
2022/06/04 01:06:02;;;;;;;6.85;4.22;;;;;;;22.41;100.00;100550.47;5088494;28;20677;-81
2022/06/04 01:08:49;;;;;;;7.78;3.80;;;;;;;22.27;100.00;100523.53;5079956;28;20197;-82
2022/06/04 01:11:25;;;;;;;4.72;3.50;;;;;;;22.05;100.00;100492.41;5072398;28;20206;-83
2022/06/04 01:14:08;;;;;;;5.78;3.90;;;;;;;21.86;100.00;100469.97;5068445;28;20586;-81
2022/06/04 01:16:41;;;;;;;10.30;4.50;;;;;;;21.86;100.00;100477.91;5084316;28;20202;-82
2022/06/04 01:19:26;;;;;;;5.28;3.42;;;;;;;21.79;100.00;100463.13;5072557;28;20203;-82
2022/06/04 01:22:07;;;;;;;5.68;4.10;;;;;;;22.38;100.00;100542.63;5092414;28;20213;-83
2022/06/04 01:25:09;;;;;;;7.95;4.10;;;;;;;22.10;100.00;100497.56;5058069;28;20205;-82
2022/06/04 01:27:44;;;;;;;7.55;3.70;;;;;;;22.30;100.00;100544.59;5010266;28;20207;-82
2022/06/04 01:30:17;;;;;;;5.93;4.10;;;;;;;21.76;100.00;100452.59;4977459;28;20220;-82
2022/06/04 01:32:50;;;;;;;13.55;3.90;;;;;;;22.13;100.00;100506.28;5029891;28;20204;-82
2022/06/04 01:35:20;;;;;;;5.85;4.63;;;;;;;21.67;100.00;100432.59;5030585;28;20268;-81
2022/06/04 01:37:54;;;;;;;4.03;3.50;;;;;;;21.76;100.00;100461.41;5044446;28;20236;-82
2022/06/04 01:43:18;;;;;;;6.82;3.58;;;;;;;21.54;100.00;100451.41;5043817;28;20606;-80
2022/06/04 01:45:47;;;;;;;7.22;4.32;;;;;;;21.38;100.00;100429.78;5039432;28;20265;-82
2022/06/04 01:48:17;;;;;;;5.18;4.60;;;;;;;21.29;100.00;100429.16;5049166;28;20211;-81
2022/06/04 01:50:50;;;;;;;9.65;4.85;;;;;;;21.27;100.00;100432.69;5048851;28;20649;-83
2022/06/04 01:53:21;;;;;;;7.20;4.80;;;;;;;21.20;100.00;100430.22;5009661;28;20205;-82
2022/06/04 01:55:55;;;;;;;6.85;5.00;;;;;;;21.23;100.00;100420.47;5034623;28;20199;-82
2022/06/04 01:58:28;;;;;;;6.53;4.63;;;;;;;21.74;100.00;100507.22;5069829;28;20248;-82
2022/06/04 02:00:58;;;;;;;5.65;5.15;;;;;;;20.99;100.00;100378.78;5071577;28;20206;-82
2022/06/04 02:03:37;;;;;;;4.88;4.47;;;;;;;21.22;100.00;100417.88;5082408;28;20202;-82
2022/06/04 02:06:08;;;;;;;11.20;5.47;;;;;;;21.01;100.00;100392.81;5090738;28;20221;-82
2022/06/04 02:08:50;;;;;;;5.57;4.80;;;;;;;21.07;100.00;100424.31;5051515;28;20307;-81
2022/06/04 02:11:19;;;;;;;5.10;4.60;;;;;;;20.97;100.00;100422.81;5068757;28;20677;-82
2022/06/04 02:13:50;;;;;;;5.88;4.97;;;;;;;21.43;100.00;100500.94;5087879;28;20281;-82
2022/06/04 02:16:23;;;;;;;6.30;4.90;;;;;;;21.24;100.00;100488.16;5077947;28;20195;-82
2022/06/04 02:18:51;;;;;;;6.90;5.35;;;;;;;20.75;100.00;100410.97;5057370;28;20222;-82
2022/06/04 02:21:18;;;;;;;7.68;5.18;;;;;;;20.82;100.00;100428.41;5088829;28;20209;-82
2022/06/04 02:23:46;;;;;;;9.60;4.75;;;;;;;20.82;100.00;100431.03;5080810;28;20641;-82
2022/06/04 02:26:13;;;;;;;8.45;4.72;;;;;;;20.87;100.00;100447.59;5082170;28;20202;-82
2022/06/04 02:28:41;;;;;;;9.23;5.50;;;;;;;20.86;100.00;100435.34;5071583;28;20210;-82
2022/06/04 02:31:16;;;;;;;6.60;4.80;;;;;;;21.44;100.00;100526.41;5077860;28;20206;-82
2022/06/04 02:33:54;;;;;;;8.85;5.05;;;;;;;20.93;100.00;100460.69;5073008;28;20252;-83
2022/06/04 02:36:29;;;;;;;6.28;5.03;;;;;;;21.18;100.00;100501.47;5087689;28;20213;-81
2022/06/04 02:39:05;;;;;;;10.27;5.03;;;;;;;21.51;100.00;100541.22;5071317;28;20226;-82
2022/06/04 02:41:36;;;;;;;6.95;5.38;;;;;;;20.90;100.00;100460.75;5071063;28;20599;-82
2022/06/04 02:44:08;;;;;;;9.43;5.10;;;;;;;20.75;100.00;100437.34;5087387;28;20285;-83
2022/06/04 02:46:41;;;;;;;7.72;5.53;;;;;;;20.96;100.00;100497.50;5074314;28;20694;-82
2022/06/04 02:49:13;;;;;;;6.53;5.00;;;;;;;20.64;100.00;100434.91;5091203;28;20261;-83
2022/06/04 02:51:43;;;;;;;8.43;5.75;;;;;;;21.18;100.00;100534.88;5079362;28;20779;-83
2022/06/04 02:54:15;;;;;;;6.90;4.97;;;;;;;20.58;100.00;100442.09;5082404;28;20584;-82
2022/06/04 02:56:44;;;;;;;9.38;6.05;;;;;;;20.74;100.00;100461.94;5079418;28;20669;-83
2022/06/04 02:59:16;;;;;;;8.82;5.20;;;;;;;21.29;100.00;100561.03;5095113;28;20230;-83
2022/06/04 03:01:47;;;;;;;9.70;5.32;;;;;;;20.68;100.00;100462.94;5095254;28;20653;-83
2022/06/04 03:04:13;;;;;;;9.43;5.53;;;;;;;20.82;100.00;100486.38;5077052;28;20203;-83
2022/06/04 03:06:41;;;;;;;8.73;5.25;;;;;;;20.71;100.00;100491.88;5081039;28;20194;-84
2022/06/04 03:09:11;;;;;;;6.68;5.22;;;;;;;20.62;100.00;100483.25;5095019;28;20657;-84
2022/06/04 03:11:43;;;;;;;6.20;5.60;;;;;;;20.76;100.00;100475.97;5085105;28;20199;-83
2022/06/04 03:14:10;;;;;;;8.55;5.90;;;;;;;21.06;100.00;100488.50;5074861;28;20249;-81
2022/06/04 03:16:38;;;;;;;9.43;5.80;;;;;;;21.37;100.00;100482.59;5051962;28;20202;-83
2022/06/04 03:19:08;;;;;;;7.47;5.35;;;;;;;21.69;100.00;100493.25;5078691;28;20227;-83
2022/06/04 03:21:35;;;;;;;10.43;5.40;;;;;;;22.10;100.00;100500.22;5086965;28;20605;-83
2022/06/04 03:24:02;;;;;;;8.82;4.90;;;;;;;22.63;100.00;100518.16;5077418;28;20297;-83
2022/06/04 03:26:29;;;;;;;7.32;4.90;;;;;;;23.15;100.00;100520.22;5065940;28;20202;-83
2022/06/04 03:28:56;;;;;;;5.43;4.60;;;;;;;23.67;100.00;100547.81;5091452;28;20190;-83
2022/06/04 03:31:23;;;;;;;5.60;4.30;;;;;;;23.99;100.00;100529.09;5086244;28;20198;-83
2022/06/04 03:33:50;;;;;;;7.63;4.50;;;;;;;24.33;100.00;100550.06;5057862;28;20194;-83
2022/06/04 03:36:18;;;;;;;6.50;4.43;;;;;;;24.97;100.00;100596.47;5095467;28;20198;-83
2022/06/04 03:38:45;;;;;;;4.90;4.40;;;;;;;25.31;100.00;100600.56;5095845;28;20218;-83
2022/06/04 03:41:12;;;;;;;9.38;4.55;;;;;;;25.33;95.38;100524.38;5076333;28;20682;-83
2022/06/04 03:43:39;;;;;;;8.10;4.63;;;;;;;26.13;89.50;100604.41;5088689;28;20206;-83
2022/06/04 03:46:06;;;;;;;12.77;4.93;;;;;;;26.47;86.03;100608.41;5073925;28;20218;-84
2022/06/04 03:48:34;;;;;;;7.57;4.25;;;;;;;26.99;82.37;100615.91;5073874;28;20211;-83
2022/06/04 03:51:01;;;;;;;4.53;4.13;;;;;;;26.78;77.52;100550.28;5026149;28;20227;-83
2022/06/04 03:53:30;;;;;;;4.40;4.00;;;;;;;27.07;76.32;100562.31;5074596;28;20501;-84
2022/06/04 03:55:57;;;;;;;6.03;4.43;;;;;;;27.34;72.36;100566.38;5077530;28;20194;-84
2022/06/04 03:58:29;;;;;;;6.20;4.28;;;;;;;27.50;73.12;100564.75;5090235;28;20209;-82
2022/06/04 04:00:57;;;;;;;6.20;4.47;;;;;;;27.70;72.35;100593.13;5076835;28;20193;-83
2022/06/04 04:03:24;;;;;;;10.02;4.25;;;;;;;28.05;71.83;100628.75;5086916;28;20207;-82
2022/06/04 04:05:54;;;;;;;6.43;4.60;;;;;;;28.54;69.99;100627.22;5087567;28;20665;-82
2022/06/04 04:08:22;;;;;;;12.13;4.28;;;;;;;28.93;66.71;100632.41;5092284;28;20202;-82
2022/06/04 04:10:51;;;;;;;8.82;4.40;;;;;;;28.78;63.69;100622.50;5074069;28;20194;-80
2022/06/04 04:13:18;;;;;;;4.85;4.43;;;;;;;28.37;63.25;100561.38;5086606;28;20198;-81
2022/06/04 04:15:46;;;;;;;7.28;4.85;;;;;;;29.20;62.91;100622.94;5041614;28;20276;-81
2022/06/04 04:18:13;;;;;;;6.68;4.10;;;;;;;28.97;61.25;100626.78;5069378;28;20226;-74
2022/06/04 04:20:44;;;;;;;5.65;4.20;;;;;;;29.32;61.60;100608.09;5089906;28;20190;-82
2022/06/04 04:23:11;;;;;;;4.32;3.90;;;;;;;29.63;60.34;100609.94;5092811;28;20197;-83
2022/06/04 04:25:39;;;;;;;6.20;4.13;;;;;;;28.98;59.83;100545.75;5076064;28;20198;-82
2022/06/04 04:28:09;;;;;;;6.20;3.78;;;;;;;27.80;64.29;100609.53;5073186;28;20213;-82
2022/06/04 04:30:37;;;;;;;5.07;4.15;;;;;;;27.43;68.43;100597.06;5072701;28;20206;-82
2022/06/04 04:33:06;;;;;;;9.00;4.28;;;;;;;27.33;68.24;100518.47;5080374;28;20685;-81
2022/06/04 04:35:35;;;;;;;8.23;4.20;;;;;;;27.00;72.04;100584.81;5056041;28;20275;-82
2022/06/04 04:38:02;;;;;;;7.95;4.35;;;;;;;27.70;70.67;100571.81;5072876;28;20234;-83
2022/06/04 04:40:30;;;;;;;10.00;4.97;;;;;;;27.66;69.16;100582.69;5072648;28;20208;-81
2022/06/04 04:42:58;;;;;;;5.43;3.90;;;;;;;28.04;66.90;100547.88;5072511;28;20194;-83
2022/06/04 04:45:28;;;;;;;5.20;3.90;;;;;;;28.73;64.35;100598.72;5072498;28;20198;-81
2022/06/04 04:47:56;;;;;;;6.40;4.18;;;;;;;27.76;67.26;100538.66;5072859;28;20201;-82
2022/06/04 04:50:26;;;;;;;8.30;4.10;;;;;;;27.57;66.51;100522.72;5089245;28;20317;-83
2022/06/04 04:52:53;;;;;;;8.07;4.50;;;;;;;27.51;67.98;100525.63;5089904;28;20198;-83
2022/06/04 04:55:21;;;;;;;6.10;4.03;;;;;;;28.25;67.58;100583.38;5037728;28;20260;-83
2022/06/04 04:57:48;;;;;;;5.22;3.97;;;;;;;28.02;66.69;100541.78;5089183;28;20194;-83
2022/06/04 05:00:16;;;;;;;8.43;4.38;;;;;;;26.74;70.86;100460.84;5091118;28;20198;-82
2022/06/04 05:02:45;;;;;;;5.45;4.05;;;;;;;27.48;73.17;100589.72;5068105;28;20631;-83
2022/06/04 05:05:12;;;;;;;6.32;3.50;;;;;;;27.10;74.29;100570.16;5073668;28;20610;-83
2022/06/04 05:07:39;;;;;;;6.70;4.25;;;;;;;27.47;75.15;100534.72;5072169;28;20202;-84
2022/06/04 05:10:08;;;;;;;5.45;4.22;;;;;;;27.95;74.25;100596.34;5027322;28;20202;-81
2022/06/04 05:12:35;;;;;;;5.35;4.15;;;;;;;27.75;75.79;100575.13;5058259;28;20202;-75
2022/06/04 05:15:06;;;;;;;6.38;4.50;;;;;;;28.43;71.14;100601.09;5072490;28;20206;-76
2022/06/04 05:17:33;;;;;;;7.25;4.22;;;;;;;29.14;64.68;100598.34;5070775;28;20195;-75
2022/06/04 05:20:02;;;;;;;10.55;4.15;;;;;;;29.04;64.73;100601.50;5070893;28;20230;-76
2022/06/04 05:22:28;;;;;;;4.63;4.22;;;;;;;28.78;64.36;100566.44;5065803;28;20712;-74
2022/06/04 05:24:55;;;;;;;6.63;4.22;;;;;;;28.38;66.67;100600.47;5069649;28;20209;-75
2022/06/04 05:27:22;;;;;;;10.48;4.47;;;;;;;28.81;65.89;100609.88;5069314;28;20727;-72
2022/06/04 05:29:49;;;;;;;5.18;4.65;;;;;;;29.32;63.57;100598.28;5071924;28;20210;-76
2022/06/04 05:32:16;;;;;;;6.00;4.40;;;;;;;28.21;65.66;100506.22;5072790;28;20691;-76
2022/06/04 05:34:43;;;;;;;6.00;4.40;;;;;;;28.44;67.23;100609.97;5060985;28;20214;-75
2022/06/04 05:37:11;;;;;;;7.00;4.60;;;;;;;29.11;65.33;100611.88;5062312;28;20289;-76
2022/06/04 05:39:38;;;;;;;8.40;4.80;;;;;;;29.20;62.55;100592.66;5063552;28;20225;-75
2022/06/04 05:42:06;;;;;;;6.00;4.70;;;;;;;29.41;59.27;100586.19;5068955;28;20673;-76
2022/06/04 05:44:33;;;;;;;4.93;4.18;;;;;;;28.99;60.13;100558.16;5073832;28;20194;-75
2022/06/04 05:47:00;;;;;;;4.82;4.28;;;;;;;29.19;60.45;100636.34;5076008;28;20214;-78
2022/06/04 05:49:27;;;;;;;150.60;110.35;;;;;;;28.60;61.73;100559.34;5069072;28;20213;-75
2022/06/04 05:51:54;;;;;;;13.02;6.38;;;;;;;28.91;61.93;100632.47;5067489;28;20287;-75
2022/06/04 05:54:23;;;;;;;7.28;4.07;;;;;;;28.78;62.45;100639.38;5064777;28;20207;-77
2022/06/04 05:56:51;;;;;;;5.47;4.50;;;;;;;28.61;64.19;100607.28;5057553;28;20662;-71
2022/06/04 05:59:20;;;;;;;8.20;4.25;;;;;;;28.63;65.77;100634.78;5067864;28;20232;-71
2022/06/04 06:01:48;;;;;;;5.28;4.60;;;;;;;28.36;65.39;100629.00;5067168;28;20209;-71
2022/06/04 06:04:17;;;;;;;7.45;4.20;;;;;;;28.29;67.25;100622.25;5067314;28;20668;-71
2022/06/04 06:06:46;;;;;;;8.10;4.10;;;;;;;28.25;66.24;100626.03;5067291;28;20210;-72
2022/06/04 06:09:15;;;;;;;4.90;4.30;;;;;;;27.92;69.42;100628.50;5071616;28;20206;-71
2022/06/04 06:11:44;;;;;;;5.53;4.57;;;;;;;27.84;69.27;100604.00;5064023;28;20198;-70
2022/06/04 06:14:12;;;;;;;7.45;4.55;;;;;;;27.77;68.78;100591.03;5064810;28;20213;-70
2022/06/04 06:16:43;;;;;;;5.53;4.43;;;;;;;27.16;74.74;100577.84;5064835;28;20190;-72
2022/06/04 06:19:10;;;;;;;4.97;4.57;;;;;;;26.18;81.49;100590.13;5050661;28;20316;-71
2022/06/04 06:21:37;;;;;;;13.18;4.72;;;;;;;26.34;83.63;100604.50;5054106;28;20198;-71
2022/06/04 06:24:05;;;;;;;9.00;4.82;;;;;;;26.68;83.03;100612.81;5052107;28;20215;-71
2022/06/04 06:26:35;;;;;;;8.50;4.78;;;;;;;26.61;83.55;100611.34;5052407;28;20207;-70
2022/06/04 06:29:05;;;;;;;4.68;4.28;;;;;;;26.82;82.91;100609.53;5049864;28;20222;-70
2022/06/04 06:31:33;;;;;;;6.30;4.60;;;;;;;27.22;82.08;100606.03;5064702;28;20210;-70
2022/06/04 06:34:01;;;;;;;4.13;3.65;;;;;;;26.61;85.31;100611.34;5035094;28;20566;-68
2022/06/04 06:36:28;;;;;;;4.70;4.30;;;;;;;26.36;89.75;100607.97;5070901;28;20784;-71
2022/06/04 06:38:55;;;;;;;5.32;4.20;;;;;;;26.59;86.77;100599.88;5070551;28;20311;-70
2022/06/04 06:41:24;;;;;;;11.38;5.15;;;;;;;26.52;87.89;100606.38;5069903;28;20203;-70
2022/06/04 06:43:51;;;;;;;4.47;4.07;;;;;;;26.18;89.85;100601.63;5070011;28;20207;-70
2022/06/04 06:46:22;;;;;;;6.50;4.55;;;;;;;26.03;91.66;100570.31;5070102;28;20620;-70
2022/06/04 06:48:52;;;;;;;5.15;4.30;;;;;;;25.92;91.96;100592.00;5070248;28;20199;-69
2022/06/04 06:51:22;;;;;;;5.05;4.68;;;;;;;26.14;91.15;100595.53;5069965;28;20608;-71
2022/06/04 06:53:49;;;;;;;4.70;4.28;;;;;;;25.99;92.54;100580.19;5070193;28;20217;-71
2022/06/04 06:56:19;;;;;;;4.90;4.45;;;;;;;26.12;90.82;100586.72;5070414;28;20663;-70
2022/06/04 06:58:46;;;;;;;7.10;4.93;;;;;;;26.08;93.21;100590.44;5069628;28;20241;-71
2022/06/04 07:01:14;;;;;;;10.48;4.95;;;;;;;26.36;91.16;100594.69;5069765;28;20203;-71
2022/06/04 07:03:43;;;;;;;5.40;3.75;;;;;;;26.33;89.60;100600.09;5070274;28;20231;-71
2022/06/04 07:06:14;;;;;;;5.68;4.38;;;;;;;26.31;91.44;100560.28;5073102;28;20213;-72
2022/06/04 07:08:43;;;;;;;5.00;4.50;;;;;;;26.77;91.40;100591.09;5073315;28;20252;-72
2022/06/04 07:11:10;;;;;;;5.18;4.53;;;;;;;27.01;89.81;100597.19;5040607;28;20210;-72
2022/06/04 07:13:37;;;;;;;8.20;4.40;;;;;;;26.73;88.87;100599.28;5062546;28;20215;-69
2022/06/04 07:16:05;;;;;;;6.93;4.55;;;;;;;26.72;90.35;100578.94;5070322;28;20203;-75
2022/06/04 07:18:32;;;;;;;7.38;4.45;;;;;;;27.21;85.93;100590.97;5073107;28;20670;-71
2022/06/04 07:21:00;;;;;;;4.80;4.40;;;;;;;27.09;86.97;100585.25;5072902;28;20195;-71
2022/06/04 07:23:27;;;;;;;5.28;4.22;;;;;;;27.05;85.97;100570.34;5054583;28;20223;-72
2022/06/04 07:25:55;;;;;;;4.68;4.28;;;;;;;27.32;88.67;100583.38;5072941;28;20206;-72
2022/06/04 07:28:22;;;;;;;7.68;4.20;;;;;;;27.20;87.83;100574.13;5073225;28;20256;-71
2022/06/04 07:30:49;;;;;;;4.43;4.03;;;;;;;27.09;88.72;100577.28;5081017;28;20199;-72
2022/06/04 07:33:16;;;;;;;4.82;4.32;;;;;;;26.67;93.01;100546.34;5093699;28;20190;-71
2022/06/04 07:35:47;;;;;;;7.10;4.60;;;;;;;27.11;92.97;100571.91;5093732;28;20198;-70
2022/06/04 07:38:15;;;;;;;5.32;4.78;;;;;;;27.33;91.35;100567.28;5093695;28;20205;-73
2022/06/04 07:40:43;;;;;;;5.07;4.65;;;;;;;27.57;91.46;100574.16;5093081;28;20242;-71
2022/06/04 07:43:10;;;;;;;5.22;4.72;;;;;;;27.42;88.36;100563.34;5093679;28;20206;-71
2022/06/04 07:45:37;;;;;;;6.07;4.82;;;;;;;27.15;91.47;100546.84;5093659;28;20201;-71
2022/06/04 07:48:06;;;;;;;6.22;4.72;;;;;;;27.31;89.11;100539.00;5090954;28;20222;-70
2022/06/04 07:50:34;;;;;;;7.18;4.45;;;;;;;27.46;90.04;100564.97;5057416;28;20279;-71
2022/06/04 07:53:02;;;;;;;8.63;4.60;;;;;;;27.57;87.74;100554.69;5039976;28;20226;-71
2022/06/04 07:55:30;;;;;;;6.50;4.30;;;;;;;27.84;87.97;100571.13;5071365;28;20213;-70
2022/06/04 07:57:57;;;;;;;5.15;4.30;;;;;;;27.72;86.47;100551.25;5074307;28;20230;-70
2022/06/04 08:00:25;;;;;;;8.15;4.55;;;;;;;27.82;88.76;100571.22;5069283;28;20245;-70
2022/06/04 08:02:52;;;;;;;5.95;4.38;;;;;;;28.13;87.72;100540.41;5080634;28;20202;-72
2022/06/04 08:05:20;;;;;;;5.72;4.32;;;;;;;28.36;83.41;100538.31;5074981;28;20201;-69
2022/06/04 08:07:46;;;;;;;5.78;4.93;;;;;;;28.57;85.98;100565.72;5085035;28;20205;-70
2022/06/04 08:10:14;;;;;;;8.77;4.32;;;;;;;28.59;83.36;100545.13;5061106;28;20229;-71
2022/06/04 08:12:45;;;;;;;6.90;4.80;;;;;;;28.60;81.97;100565.56;5050002;28;20210;-70
2022/06/04 08:15:12;;;;;;;8.52;4.55;;;;;;;28.67;81.76;100561.66;5082700;28;20202;-71
2022/06/04 08:17:38;;;;;;;7.28;4.53;;;;;;;28.46;81.76;100557.41;5061839;28;20215;-73
2022/06/04 08:20:06;;;;;;;5.07;4.57;;;;;;;28.49;83.85;100555.44;5048826;28;20239;-71
2022/06/04 08:22:33;;;;;;;5.13;4.63;;;;;;;28.61;82.65;100545.91;5049181;28;20264;-71
2022/06/04 08:25:00;;;;;;;6.30;4.32;;;;;;;28.44;84.12;100528.13;5049182;28;20667;-70
2022/06/04 08:27:27;;;;;;;7.30;5.00;;;;;;;28.73;85.64;100539.97;5063875;28;20679;-70
2022/06/04 08:29:55;;;;;;;4.68;4.18;;;;;;;28.89;84.10;100542.72;5049619;28;20203;-71
2022/06/04 08:32:22;;;;;;;10.52;3.95;;;;;;;28.45;84.25;100526.31;5054371;28;20599;-71
2022/06/04 08:34:49;;;;;;;4.85;4.00;;;;;;;28.52;86.72;100525.06;5058866;28;20249;-76
2022/06/04 08:37:17;;;;;;;10.35;4.13;;;;;;;28.63;84.95;100520.03;5048747;28;20207;-76
2022/06/04 08:39:44;;;;;;;9.15;4.30;;;;;;;28.64;84.71;100539.56;5067549;28;20698;-71
2022/06/04 08:42:41;;;;;;;5.63;4.55;;;;;;;28.86;86.71;100503.66;5050260;28;20219;-71
2022/06/04 08:45:12;;;;;;;5.65;4.10;;;;;;;28.87;82.87;100529.44;5048554;28;20210;-69
2022/06/04 08:47:44;;;;;;;4.40;4.00;;;;;;;28.96;82.44;100517.41;5056646;28;20202;-70
2022/06/04 08:50:17;;;;;;;4.35;3.67;;;;;;;28.66;82.58;100486.97;5044015;28;20701;-70
2022/06/04 08:52:47;;;;;;;7.88;3.88;;;;;;;28.94;81.80;100492.56;5053799;28;20215;-70
2022/06/04 08:58:24;;;;;;;3.97;3.65;;;;;;;29.12;74.51;100509.41;5056510;28;20220;-70
2022/06/04 09:00:58;;;;;;;4.60;3.50;;;;;;;28.85;77.67;100496.63;5075705;28;20326;-69
2022/06/04 09:03:32;;;;;;;8.00;3.90;;;;;;;29.10;80.68;100516.66;5057883;28;20239;-70
2022/06/04 09:06:12;;;;;;;4.07;3.88;;;;;;;29.15;82.36;100510.09;5054636;28;20895;-69
2022/06/04 09:08:52;;;;;;;3.63;3.30;;;;;;;28.98;74.05;100505.69;5057996;28;20202;-70
2022/06/04 09:11:24;;;;;;;4.22;3.83;;;;;;;29.22;80.71;100516.84;5066620;28;20285;-71
2022/06/04 09:14:18;;;;;;;4.53;3.95;;;;;;;29.10;81.07;100505.97;5068001;28;20210;-70
2022/06/04 09:16:53;;;;;;;4.20;4.00;;;;;;;29.28;77.43;100505.00;5053666;28;20206;-70
2022/06/04 09:19:25;;;;;;;4.50;3.92;;;;;;;29.18;76.78;100506.44;5072624;28;20236;-71
2022/06/04 09:21:53;;;;;;;3.97;3.60;;;;;;;29.00;78.58;100509.13;5066752;28;20210;-76
2022/06/04 09:24:20;;;;;;;3.38;3.17;;;;;;;28.91;81.12;100495.41;5066816;28;20217;-73
2022/06/04 09:26:53;;;;;;;4.70;4.13;;;;;;;28.97;81.96;100506.63;5069854;28;20210;-72
2022/06/04 09:29:40;;;;;;;3.40;3.10;;;;;;;28.97;76.31;100503.97;5066293;28;20203;-71
2022/06/04 09:32:15;;;;;;;5.13;4.63;;;;;;;28.83;79.21;100495.81;5047358;28;20207;-71
2022/06/04 09:34:47;;;;;;;3.33;3.13;;;;;;;28.86;75.64;100495.66;5047547;28;20238;-70
2022/06/04 09:37:15;;;;;;;5.53;3.28;;;;;;;29.06;73.44;100497.28;5062177;28;20214;-71
2022/06/04 09:39:47;;;;;;;3.67;3.38;;;;;;;29.27;69.21;100481.88;5056041;28;20223;-70
2022/06/04 09:42:22;;;;;;;4.13;2.90;;;;;;;29.58;68.85;100499.72;5054485;28;20211;-70
2022/06/04 09:44:52;;;;;;;7.00;3.63;;;;;;;29.55;65.68;100490.06;5062977;28;20280;-71
2022/06/04 09:47:22;;;;;;;5.13;3.58;;;;;;;29.40;66.49;100498.94;5068267;28;20218;-69
2022/06/04 09:49:56;;;;;;;3.97;3.58;;;;;;;29.73;64.91;100502.41;5077290;28;20268;-69
2022/06/04 09:52:28;;;;;;;5.15;3.88;;;;;;;29.80;64.46;100493.06;5066712;28;20207;-69
2022/06/04 09:54:58;;;;;;;3.63;3.33;;;;;;;30.28;64.83;100491.19;5067072;28;20209;-73
2022/06/04 09:57:28;;;;;;;11.57;4.03;;;;;;;30.35;63.55;100487.19;5069147;28;20226;-70
2022/06/04 09:59:58;;;;;;;6.95;3.90;;;;;;;30.59;62.60;100469.66;5068568;28;20226;-70
2022/06/04 10:02:26;;;;;;;4.38;3.65;;;;;;;30.57;63.71;100481.44;5067196;28;20214;-71
2022/06/04 10:05:02;;;;;;;5.03;3.97;;;;;;;30.24;63.87;100417.41;5066807;28;20209;-71
2022/06/04 10:07:33;;;;;;;5.78;3.70;;;;;;;30.88;63.14;100478.56;5069727;28;20306;-70
2022/06/04 10:10:03;;;;;;;3.97;3.60;;;;;;;31.08;62.72;100482.69;5067630;28;20198;-70
2022/06/04 10:15:26;;;;;;;5.50;3.08;;;;;;;30.65;65.02;100463.91;5067178;28;20803;-71
2022/06/04 10:18:06;;;;;;;5.63;4.00;;;;;;;30.70;62.52;100447.56;5066579;28;20205;-72
2022/06/04 10:20:33;;;;;;;5.20;3.13;;;;;;;31.03;62.07;100476.78;5067079;28;20716;-72
2022/06/04 10:23:00;;;;;;;10.02;3.70;;;;;;;30.98;61.10;100472.56;5047898;28;20237;-72
2022/06/04 10:25:35;;;;;;;4.82;3.45;;;;;;;30.89;61.80;100449.00;5067414;28;20205;-74
2022/06/04 10:28:20;;;;;;;3.03;2.85;;;;;;;30.60;64.70;100447.28;5065941;28;20209;-71
2022/06/04 10:30:53;;;;;;;5.72;3.50;;;;;;;30.30;67.01;100463.38;5067088;28;20217;-71
2022/06/04 10:33:34;;;;;;;7.38;3.80;;;;;;;30.82;64.82;100461.06;5061259;28;20202;-70
2022/06/04 12:01:15;;;;;;;10.93;9.75;;;;;;;32.31;62.35;100365.38;5109033;27;20530;-70
2022/06/04 12:03:49;;;;;;;7.65;6.05;;;;;;;31.90;59.89;100365.53;5109085;28;20232;-69
2022/06/04 12:06:23;;;;;;;5.28;4.38;;;;;;;31.11;62.27;100364.63;5091209;28;20196;-69
2022/06/04 12:08:57;;;;;;;4.22;3.92;;;;;;;31.23;62.88;100366.50;5112434;27;20205;-69
2022/06/04 12:11:34;;;;;;;8.00;4.05;;;;;;;31.06;60.78;100337.28;5116940;27;20199;-69
2022/06/04 12:14:07;;;;;;;4.40;3.90;;;;;;;31.19;60.19;100367.66;5033322;28;20283;-69
2022/06/04 12:16:44;;;;;;;4.85;3.95;;;;;;;31.45;59.62;100331.94;5105230;28;20320;-67
2022/06/04 12:25:09;;;;;;;5.22;4.10;;;;;;;31.97;58.88;100305.09;5122883;27;20254;-70
2022/06/04 12:27:38;;;;;;;6.10;4.00;;;;;;;31.81;59.37;100350.94;5087783;28;20196;-68
2022/06/04 12:30:15;;;;;;;9.20;3.75;;;;;;;31.43;59.29;100344.56;5103999;28;20638;-67
2022/06/04 12:32:44;;;;;;;4.70;3.67;;;;;;;31.32;60.21;100337.25;5104578;28;20197;-68
2022/06/04 12:35:30;;;;;;;4.30;4.00;;;;;;;31.79;59.44;100342.13;5108629;27;20206;-67
2022/06/04 12:37:59;;;;;;;3.97;3.67;;;;;;;31.29;60.06;100348.19;5099837;28;20197;-67
2022/06/04 12:40:35;;;;;;;5.30;3.83;;;;;;;31.44;58.21;100338.25;5104085;28;20786;-70
2022/06/04 12:43:10;;;;;;;5.43;3.95;;;;;;;31.49;58.94;100341.50;5104329;28;21009;-70
2022/06/04 12:45:42;;;;;;;5.55;3.97;;;;;;;31.08;59.52;100327.28;5077683;28;20683;-69
2022/06/04 12:48:38;;;;;;;6.05;4.35;;;;;;;31.28;58.76;100340.25;5108206;28;20208;-69
2022/06/04 12:51:10;;;;;;;4.20;3.90;;;;;;;31.84;57.15;100337.31;5115860;27;20212;-69
2022/06/04 12:53:48;;;;;;;3.78;3.30;;;;;;;31.95;57.46;100332.06;5109636;27;20676;-70
2022/06/04 12:56:23;;;;;;;5.53;4.20;;;;;;;31.95;56.12;100333.88;5103771;28;20200;-70
2022/06/04 12:58:52;;;;;;;3.95;3.58;;;;;;;31.49;57.27;100322.72;5104001;28;20192;-69
2022/06/04 13:01:27;;;;;;;3.97;3.67;;;;;;;31.86;57.10;100327.31;5108211;28;20211;-69
2022/06/04 13:04:19;;;;;;;4.30;4.00;;;;;;;32.11;56.29;100328.31;5119297;27;20278;-68
2022/06/04 13:06:48;;;;;;;3.80;3.58;;;;;;;32.17;53.94;100319.84;5114348;27;20278;-69
2022/06/04 13:09:51;;;;;;;9.88;3.97;;;;;;;32.28;54.85;100322.66;5105675;28;20232;-70
2022/06/04 13:12:31;;;;;;;4.10;3.58;;;;;;;32.12;53.01;100322.00;5092052;28;20198;-70
2022/06/04 13:15:14;;;;;;;4.38;4.07;;;;;;;32.16;52.87;100323.50;5089819;28;20198;-69
2022/06/04 13:17:46;;;;;;;4.43;4.00;;;;;;;32.13;54.88;100318.34;5059987;28;20285;-69
2022/06/04 13:20:47;;;;;;;7.78;4.38;;;;;;;31.86;54.61;100305.00;5089720;28;20230;-68
2022/06/04 13:23:22;;;;;;;5.32;4.35;;;;;;;31.82;54.16;100293.63;5047340;28;20288;-69
2022/06/04 13:26:01;;;;;;;4.20;3.70;;;;;;;31.90;55.65;100307.38;5031277;28;20202;-69